createdAt,value
2023-03-22T00:02:18.773Z,31.24
2023-03-22T00:06:18.764Z,29.96
2023-03-22T00:10:18.711Z,29.49
2023-03-22T00:14:18.783Z,30.74
2023-03-22T00:18:18.844Z,26.75
2023-03-22T00:22:18.879Z,26.61
2023-03-22T00:26:18.978Z,29.72
2023-03-22T00:30:19.057Z,30.64
2023-03-22T00:34:19.067Z,28.57
2023-03-22T00:38:20.562Z,25.35
2023-03-22T00:42:19.120Z,29.12
2023-03-22T00:46:19.151Z,31.08
2023-03-22T00:50:19.023Z,26.65
2023-03-22T00:54:19.110Z,30.06
2023-03-22T00:58:18.997Z,27.29
2023-03-22T01:02:18.946Z,29.75
2023-03-22T01:06:18.907Z,28.60
2023-03-22T01:10:18.917Z,30.27
2023-03-22T01:14:18.776Z,28.70
2023-03-22T01:18:18.752Z,28.00
2023-03-22T01:22:18.808Z,28.54
2023-03-22T01:26:19.409Z,29.76
2023-03-22T01:30:19.070Z,27.53
2023-03-22T01:34:18.633Z,29.29
2023-03-22T01:38:18.606Z,31.48
2023-03-22T01:42:18.574Z,27.88
2023-03-22T01:46:18.564Z,30.73
2023-03-22T01:50:21.440Z,27.37
2023-03-22T01:54:18.458Z,26.43
2023-03-22T01:58:18.534Z,29.85
2023-03-22T02:02:18.571Z,26.63
2023-03-22T02:06:18.332Z,28.68
2023-03-22T02:10:18.285Z,28.44
2023-03-22T02:14:18.255Z,29.12
2023-03-22T02:18:18.529Z,28.88
2023-03-22T02:22:18.165Z,27.56
2023-03-22T02:26:18.138Z,31.17
2023-03-22T02:30:18.120Z,26.80
2023-03-22T02:34:18.471Z,32.24
2023-03-22T02:38:18.083Z,29.08
2023-03-22T02:42:18.171Z,29.88
2023-03-22T02:46:18.110Z,28.79
2023-03-22T02:50:17.964Z,32.76
2023-03-22T02:54:18.058Z,28.42
2023-03-22T02:58:17.922Z,29.12
2023-03-22T03:02:17.875Z,31.16
2023-03-22T03:06:17.887Z,30.25
2023-03-22T03:10:17.767Z,28.82
2023-03-22T03:14:17.833Z,30.61
2023-03-22T03:18:17.663Z,29.28
2023-03-22T03:22:17.987Z,29.14
2023-03-22T03:26:17.725Z,31.72
2023-03-22T03:30:17.714Z,30.05
2023-03-22T03:34:18.476Z,29.88
2023-03-22T03:38:17.563Z,27.99
2023-03-22T03:42:17.551Z,29.49
2023-03-22T03:46:17.606Z,32.08
2023-03-22T03:50:18.001Z,32.13
2023-03-22T03:54:17.419Z,28.58
2023-03-22T03:58:18.537Z,26.88
2023-03-22T04:02:18.038Z,29.54
2023-03-22T04:06:17.528Z,25.77
2023-03-22T04:10:17.761Z,29.96
2023-03-22T04:14:17.884Z,30.66
2023-03-22T04:18:18.020Z,26.49
2023-03-22T04:22:18.254Z,27.87
2023-03-22T04:26:18.411Z,28.98
2023-03-22T04:30:18.584Z,27.39
2023-03-22T04:34:18.729Z,29.89
2023-03-22T04:38:18.815Z,29.00
2023-03-22T04:42:18.911Z,27.00
2023-03-22T04:46:18.964Z,31.96
2023-03-22T04:50:18.959Z,30.22
2023-03-22T04:54:19.072Z,30.44
2023-03-22T04:58:19.186Z,31.95
2023-03-22T05:02:19.240Z,26.78
2023-03-22T05:06:19.228Z,28.39
2023-03-22T05:10:19.244Z,27.35
2023-03-22T05:14:19.332Z,26.62
2023-03-22T05:18:19.221Z,31.61
2023-03-22T05:22:19.230Z,27.20
2023-03-22T05:26:19.200Z,26.02
2023-03-22T05:30:19.292Z,34.94
2023-03-22T05:34:19.344Z,30.95
2023-03-22T05:38:19.504Z,28.66
2023-03-22T05:42:19.567Z,32.57
2023-03-22T05:46:20.554Z,29.47
2023-03-22T05:50:19.982Z,31.68
2023-03-22T05:54:20.063Z,30.92
2023-03-22T05:58:20.285Z,29.93
2023-03-22T06:02:21.063Z,28.62
2023-03-22T06:06:20.594Z,27.42
2023-03-22T06:10:20.856Z,28.12
2023-03-22T06:14:23.039Z,28.09
2023-03-22T06:18:21.168Z,30.15
2023-03-22T06:22:21.610Z,34.56
2023-03-22T06:26:21.474Z,30.18
2023-03-22T06:30:24.903Z,52.06
2023-03-22T06:38:40.773Z,25.00
2023-03-22T06:42:40.859Z,26.57
2023-03-22T06:46:40.640Z,32.49
2023-03-22T06:50:43.049Z,27.22
2023-03-22T06:54:40.772Z,28.57
2023-03-22T06:58:40.928Z,25.00
2023-03-22T07:02:40.603Z,49.04
2023-03-22T07:06:41.507Z,53.65
2023-03-22T07:10:40.762Z,44.83
2023-03-22T07:14:40.668Z,33.94
2023-03-22T07:18:40.537Z,32.85
2023-03-22T07:22:40.610Z,30.35
2023-03-22T07:26:40.423Z,26.95
2023-03-22T07:30:41.352Z,25.27
2023-03-22T07:34:40.787Z,41.61
2023-03-22T07:38:41.489Z,44.58
2023-03-22T07:42:40.505Z,53.79
2023-03-22T07:46:40.274Z,44.42
2023-03-22T07:50:41.333Z,37.05
2023-03-22T07:54:40.465Z,25.00
2023-03-22T07:58:41.443Z,42.64
2023-03-22T08:02:40.939Z,45.43
2023-03-22T08:06:40.743Z,25.00
2023-03-22T08:10:40.914Z,45.94
2023-03-22T08:14:41.040Z,33.91
2023-03-22T08:18:44.424Z,27.69
2023-03-22T08:22:40.579Z,44.31
2023-03-22T08:26:40.735Z,57.83
2023-03-22T08:30:40.938Z,53.22
2023-03-22T08:34:40.893Z,98.67
2023-03-22T08:38:52.761Z,102.99
2023-03-22T08:42:41.152Z,75.61
2023-03-22T08:46:41.941Z,45.59
2023-03-22T08:50:40.583Z,26.70
2023-03-22T08:54:42.011Z,5.33
2023-03-22T08:58:40.622Z,25.53
2023-03-22T09:02:41.034Z,25.16
2023-03-22T09:06:41.579Z,45.30
2023-03-22T09:10:41.907Z,25.94
2023-03-22T09:14:40.742Z,26.37
2023-03-22T09:18:40.708Z,44.89
2023-03-22T09:22:40.675Z,36.43
2023-03-22T09:26:44.526Z,107.08
2023-03-22T09:34:59.923Z,25.00
2023-03-22T09:38:59.597Z,25.79
2023-03-22T09:42:59.520Z,80.33
2023-03-22T09:46:59.480Z,277.86
2023-03-22T09:50:59.627Z,94.75
2023-03-22T09:54:59.493Z,114.25
2023-03-22T09:58:59.354Z,82.89
2023-03-22T10:02:59.389Z,98.69
2023-03-22T10:06:59.454Z,78.99
2023-03-22T10:10:59.290Z,72.09
2023-03-22T10:14:59.397Z,51.87
2023-03-22T10:18:59.649Z,39.85
2023-03-22T10:23:00.420Z,58.59
2023-03-22T10:27:00.135Z,52.66
2023-03-22T10:31:07.582Z,84.45
2023-03-22T10:35:00.108Z,71.49
2023-03-22T10:39:00.106Z,44.37
2023-03-22T10:43:01.008Z,57.17
2023-03-22T10:47:00.426Z,19.28
2023-03-22T10:51:00.289Z,11.48
2023-03-22T10:55:04.212Z,38.13
2023-03-22T10:59:00.293Z,33.17
2023-03-22T11:03:00.335Z,27.17
2023-03-22T11:07:00.220Z,71.21
2023-03-22T11:11:00.211Z,54.68
2023-03-22T11:15:00.165Z,83.54
2023-03-22T11:19:00.140Z,75.60
2023-03-22T11:23:00.172Z,84.13
2023-03-22T11:27:00.040Z,104.65
2023-03-22T11:31:00.365Z,89.93
2023-03-22T11:35:00.428Z,83.80
2023-03-22T11:38:59.989Z,94.06
2023-03-22T11:42:59.978Z,117.00
2023-03-22T11:46:59.936Z,117.11
2023-03-22T11:50:59.912Z,110.42
2023-03-22T11:54:59.881Z,108.42
2023-03-22T11:58:59.808Z,140.47
2023-03-22T12:02:59.969Z,139.06
2023-03-22T12:07:00.149Z,134.72
2023-03-22T12:11:00.106Z,167.20
2023-03-22T12:15:01.011Z,152.93
2023-03-22T12:19:02.366Z,189.89
2023-03-22T12:23:00.245Z,185.74
2023-03-22T12:27:00.340Z,193.26
2023-03-22T12:31:00.463Z,194.28
2023-03-22T12:35:18.416Z,191.52
2023-03-22T12:39:02.545Z,192.21
2023-03-22T12:43:00.593Z,190.62
2023-03-22T12:47:00.623Z,192.16
2023-03-22T12:51:00.666Z,143.69
2023-03-22T12:55:00.713Z,184.12
2023-03-22T12:59:00.610Z,161.56
2023-03-22T13:03:00.704Z,79.68
2023-03-22T13:07:00.634Z,97.88
2023-03-22T13:11:00.525Z,94.11
2023-03-22T13:15:00.459Z,94.97
2023-03-22T13:19:00.501Z,66.67
2023-03-22T13:23:00.473Z,54.39
2023-03-22T13:27:04.364Z,75.86
2023-03-22T13:31:00.350Z,77.46
2023-03-22T13:35:00.357Z,81.92
2023-03-22T13:39:00.535Z,60.53
2023-03-22T13:43:00.220Z,48.52
2023-03-22T13:47:00.275Z,53.47
2023-03-22T13:51:00.314Z,23.26
2023-03-22T13:55:00.237Z,56.83
2023-03-22T13:59:00.256Z,55.12
2023-03-22T14:03:00.277Z,121.41
2023-03-22T14:07:00.153Z,101.23
2023-03-22T14:11:00.070Z,75.25
2023-03-22T14:15:00.044Z,93.88
2023-03-22T14:19:00.027Z,152.90
2023-03-22T14:48:01.529Z,25.00
2023-03-22T14:52:04.010Z,44.20
2023-03-22T14:56:01.457Z,55.72
2023-03-22T15:00:02.258Z,45.73
2023-03-22T15:04:01.556Z,46.47
2023-03-22T15:08:01.441Z,49.01
2023-03-22T15:12:02.270Z,33.04
2023-03-22T15:16:01.294Z,52.50
2023-03-22T15:20:01.260Z,30.97
2023-03-22T15:24:01.194Z,35.59
2023-03-22T15:28:01.182Z,49.80
2023-03-22T15:32:01.097Z,72.95
2023-03-22T15:36:02.222Z,100.09
2023-03-22T15:40:01.230Z,151.66
2023-03-22T15:44:01.363Z,116.66
2023-03-22T15:48:01.743Z,86.52
2023-03-22T15:52:01.675Z,75.47
2023-03-22T15:56:01.705Z,66.66
2023-03-22T16:00:01.802Z,37.75
2023-03-22T16:04:01.941Z,60.86
2023-03-22T16:08:02.053Z,71.57
2023-03-22T16:12:02.182Z,94.29
2023-03-22T16:16:02.329Z,45.20
2023-03-22T16:20:02.559Z,31.71
2023-03-22T16:24:02.616Z,47.84
2023-03-22T16:28:02.754Z,50.19
2023-03-22T16:32:02.869Z,37.05
2023-03-22T16:36:02.985Z,37.46
2023-03-22T16:40:03.124Z,42.54
2023-03-22T16:44:03.219Z,50.52
2023-03-22T16:48:03.340Z,56.03
2023-03-22T16:52:03.447Z,77.02
2023-03-22T16:56:03.487Z,74.20
2023-03-22T17:00:03.618Z,67.87
2023-03-22T17:04:03.708Z,55.69
2023-03-22T17:08:03.770Z,66.08
2023-03-22T17:12:03.921Z,60.70
2023-03-22T17:16:04.085Z,58.89
2023-03-22T17:20:04.725Z,57.01
2023-03-22T17:24:04.271Z,63.16
2023-03-22T17:28:04.380Z,68.79
2023-03-22T17:32:10.012Z,64.33
2023-03-22T17:36:05.568Z,70.67
2023-03-22T17:44:04.434Z,63.11
2023-03-22T17:48:04.404Z,54.49
2023-03-22T17:52:04.385Z,47.45
2023-03-22T17:56:44.094Z,56.24
2023-03-22T18:00:05.261Z,54.21
2023-03-22T18:04:04.242Z,48.23
2023-03-22T18:08:26.315Z,40.82
2023-03-22T18:12:05.795Z,45.46
2023-03-22T18:16:04.374Z,27.55
2023-03-22T18:20:14.883Z,37.67
2023-03-22T18:24:05.285Z,24.27
2023-03-22T18:28:04.245Z,32.72
2023-03-22T18:36:05.333Z,39.49
2023-03-22T18:40:31.226Z,25.28
2023-03-22T18:44:05.234Z,22.66
2023-03-22T18:48:04.211Z,27.38
2023-03-22T18:56:06.847Z,39.05
2023-03-22T19:00:04.317Z,38.83
2023-03-22T19:04:04.293Z,29.55
2023-03-22T19:08:16.258Z,41.87
2023-03-22T19:12:05.264Z,30.54
2023-03-22T19:16:04.331Z,31.43
2023-03-22T19:20:04.290Z,27.54
2023-03-22T19:24:04.583Z,32.14
2023-03-22T19:28:06.662Z,35.51
2023-03-22T19:32:04.932Z,40.74
2023-03-22T19:36:05.166Z,43.69
2023-03-22T19:41:13.892Z,53.52
2023-03-22T19:44:06.326Z,58.53
2023-03-22T19:48:05.242Z,62.81
2023-03-22T19:52:06.330Z,73.40
2023-03-22T19:56:05.774Z,84.21
2023-03-22T20:00:43.913Z,91.59
2023-03-22T20:04:06.757Z,96.43
2023-03-22T20:08:06.319Z,95.21
2023-03-22T20:12:05.780Z,96.84
2023-03-22T20:16:05.959Z,100.00
2023-03-22T20:20:06.239Z,104.00
2023-03-22T20:24:06.404Z,104.62
2023-03-22T20:28:06.641Z,105.01
2023-03-22T20:32:06.822Z,107.98
2023-03-22T20:36:07.017Z,109.07
2023-03-22T20:40:07.227Z,108.30
2023-03-22T20:44:07.459Z,109.69
2023-03-22T20:48:07.641Z,107.35
2023-03-22T20:52:07.852Z,112.85
2023-03-22T20:56:07.827Z,112.57
2023-03-22T21:00:07.802Z,112.57
2023-03-22T21:04:07.734Z,107.79
2023-03-22T21:08:07.740Z,107.35
2023-03-22T21:12:07.855Z,110.51
2023-03-22T21:16:07.643Z,106.46
2023-03-22T21:20:07.574Z,106.20
2023-03-22T21:24:07.539Z,106.08
2023-03-22T21:28:07.669Z,102.24
2023-03-22T21:32:07.496Z,103.31
2023-03-22T21:36:07.541Z,100.34
2023-03-22T21:40:07.482Z,100.81
2023-03-22T21:44:07.773Z,98.31
2023-03-22T21:48:07.825Z,99.25
2023-03-22T21:52:08.019Z,100.30
2023-03-22T21:56:08.208Z,98.24
2023-03-22T22:00:08.552Z,96.40
2023-03-22T22:04:08.864Z,92.92
2023-03-22T22:08:08.730Z,91.05
2023-03-22T22:12:08.926Z,91.92
2023-03-22T22:16:09.894Z,89.19
2023-03-22T22:20:09.145Z,89.12
2023-03-22T22:24:09.084Z,87.53
2023-03-22T22:28:09.433Z,89.94
2023-03-22T22:32:09.065Z,84.76
2023-03-22T22:36:09.011Z,84.85
2023-03-22T22:40:09.080Z,83.13
2023-03-22T22:44:08.908Z,84.28
2023-03-22T22:48:08.884Z,79.28
2023-03-22T22:52:08.846Z,79.08
2023-03-22T22:56:08.910Z,80.69
2023-03-22T23:00:08.850Z,77.95
2023-03-22T23:04:08.864Z,74.63
2023-03-22T23:08:08.816Z,74.71
2023-03-22T23:12:08.749Z,75.08
2023-03-22T23:16:08.762Z,73.76
2023-03-22T23:20:08.693Z,71.72
2023-03-22T23:24:08.662Z,70.02
2023-03-22T23:28:08.634Z,67.90
2023-03-22T23:32:08.613Z,71.00
2023-03-22T23:36:08.693Z,65.62
2023-03-22T23:40:08.556Z,64.86
2023-03-22T23:44:08.537Z,66.70
2023-03-22T23:48:08.542Z,61.65
2023-03-22T23:52:08.467Z,58.57
2023-03-22T23:56:08.444Z,61.33
